Time;durP1;ratioP1;P1;durP2;ratioP2;P2;SDS_P1;SDS_P2;PMS_P1;PMS_P2;Temp;Humidity;BMP_temperature;BMP_pressure;BME280_temperature;BME280_humidity;BME280_pressure;Samples;Min_cycle;Max_cycle;Signal;HPM_P1;HPM_P2
2023/05/14 00:01:45;;;;;;;27.58;17.98;;;11.20;99.90;;;;;;5051907;28;20136;-82
2023/05/14 00:04:11;;;;;;;24.60;18.20;;;11.10;99.90;;;;;;5081157;28;20044;-85
2023/05/14 00:06:36;;;;;;;24.83;16.52;;;11.10;99.90;;;;;;5047345;28;20047;-83
2023/05/14 00:09:03;;;;;;;26.45;18.02;;;11.20;99.90;;;;;;5066051;28;20024;-84
2023/05/14 00:11:28;;;;;;;27.23;17.80;;;11.10;99.90;;;;;;5050797;28;20032;-84
2023/05/14 00:13:54;;;;;;;21.23;16.23;;;11.20;99.90;;;;;;4712365;28;10000459;-84
2023/05/14 00:16:20;;;;;;;25.05;17.27;;;11.20;99.90;;;;;;5087603;28;20111;-85
2023/05/14 00:18:45;;;;;;;25.63;18.63;;;11.10;99.90;;;;;;5093543;28;20423;-84
2023/05/14 00:21:11;;;;;;;25.27;17.63;;;11.10;99.90;;;;;;5083136;28;20454;-85
2023/05/14 00:23:37;;;;;;;25.55;17.55;;;11.20;99.90;;;;;;5062156;28;20065;-84
2023/05/14 00:26:03;;;;;;;23.45;16.98;;;11.30;99.90;;;;;;5079569;28;20044;-84
2023/05/14 00:28:29;;;;;;;27.08;16.70;;;11.30;99.90;;;;;;5062115;28;20111;-84
2023/05/14 00:30:55;;;;;;;25.52;16.50;;;11.30;99.90;;;;;;5047496;28;20175;-84
2023/05/14 00:33:24;;;;;;;22.88;16.20;;;11.40;99.90;;;;;;5051651;28;20035;-84
2023/05/14 00:35:50;;;;;;;23.63;15.18;;;11.40;99.90;;;;;;5046440;28;20028;-84
2023/05/14 00:38:18;;;;;;;20.13;14.75;;;11.40;99.90;;;;;;5094076;28;21012;-84
2023/05/14 00:40:49;;;;;;;18.88;14.65;;;11.50;99.90;;;;;;5065141;28;20036;-84
2023/05/14 00:43:18;;;;;;;21.42;15.02;;;11.50;99.90;;;;;;5055844;28;20407;-84
2023/05/14 00:45:45;;;;;;;25.52;17.33;;;11.50;99.90;;;;;;5064839;28;20033;-84
2023/05/14 00:48:11;;;;;;;24.42;15.85;;;11.30;99.90;;;;;;5064774;28;20024;-84
2023/05/14 00:50:37;;;;;;;24.90;17.45;;;11.30;99.90;;;;;;5051713;28;20037;-85
2023/05/14 00:53:03;;;;;;;24.08;17.98;;;11.20;99.90;;;;;;5096331;28;20031;-85
2023/05/14 00:55:29;;;;;;;24.50;16.50;;;11.20;99.90;;;;;;5055006;28;20153;-84
2023/05/14 00:58:01;;;;;;;23.83;16.73;;;11.30;99.90;;;;;;5058788;28;20052;-84
2023/05/14 01:00:27;;;;;;;26.95;17.27;;;11.10;99.90;;;;;;5052868;28;20534;-85
2023/05/14 01:02:53;;;;;;;22.23;16.50;;;11.00;99.90;;;;;;5065878;28;20032;-85
2023/05/14 01:05:18;;;;;;;23.27;15.98;;;11.00;99.90;;;;;;5081520;28;20139;-84
2023/05/14 01:07:50;;;;;;;25.08;17.17;;;11.00;99.90;;;;;;5046621;28;20175;-84
2023/05/14 01:10:38;;;;;;;21.83;15.60;;;10.90;99.90;;;;;;5057144;28;20033;-85
2023/05/14 01:13:36;;;;;;;23.52;15.02;;;10.90;99.90;;;;;;5049873;28;20426;-84
2023/05/14 01:16:11;;;;;;;22.30;15.18;;;10.90;99.90;;;;;;5052085;28;20028;-84
2023/05/14 01:18:39;;;;;;;24.05;16.23;;;11.00;99.90;;;;;;5066163;28;20295;-85
2023/05/14 01:21:16;;;;;;;23.48;16.65;;;10.80;99.90;;;;;;5061886;28;20076;-85
2023/05/14 01:23:42;;;;;;;20.48;15.70;;;10.70;99.90;;;;;;5075952;28;20052;-84
2023/05/14 01:26:08;;;;;;;21.45;16.25;;;10.80;99.90;;;;;;5054172;28;20070;-84
2023/05/14 01:28:37;;;;;;;22.90;16.25;;;10.80;99.90;;;;;;5047699;28;20064;-84
2023/05/14 01:31:09;;;;;;;22.25;16.20;;;10.70;99.90;;;;;;5094922;28;20036;-84
2023/05/14 01:33:36;;;;;;;26.73;16.15;;;10.80;99.90;;;;;;5054553;28;20040;-83
2023/05/14 01:36:08;;;;;;;23.67;17.00;;;10.80;99.90;;;;;;5049163;28;20494;-85
2023/05/14 01:39:15;;;;;;;25.08;15.73;;;10.70;99.90;;;;;;5049760;28;20742;-85
2023/05/14 01:41:41;;;;;;;22.40;14.75;;;10.80;99.90;;;;;;5081265;28;20411;-84
2023/05/14 01:44:11;;;;;;;22.52;16.17;;;10.90;99.90;;;;;;5055958;28;20023;-85
2023/05/14 01:47:21;;;;;;;24.95;16.48;;;10.90;99.90;;;;;;5060482;28;20075;-85
2023/05/14 01:49:48;;;;;;;22.10;16.50;;;11.00;99.90;;;;;;5073277;28;20506;-83
2023/05/14 01:52:13;;;;;;;24.50;17.45;;;10.90;99.90;;;;;;5087105;28;20116;-84
2023/05/14 01:54:39;;;;;;;28.90;18.02;;;10.70;99.90;;;;;;5081925;28;20036;-84
2023/05/14 01:57:21;;;;;;;25.25;17.40;;;10.70;99.90;;;;;;5088096;28;20052;-84
2023/05/14 01:59:47;;;;;;;26.42;18.05;;;10.70;99.90;;;;;;5047561;28;20044;-84
2023/05/14 02:02:13;;;;;;;25.10;17.33;;;10.70;99.90;;;;;;5038551;22;20512;-84
2023/05/14 02:04:58;;;;;;;29.00;18.98;;;10.60;99.90;;;;;;5028649;28;20044;-84
2023/05/14 02:07:28;;;;;;;29.30;19.33;;;10.50;99.90;;;;;;5058730;28;20029;-83
2023/05/14 02:10:03;;;;;;;28.83;19.15;;;10.50;99.90;;;;;;5025134;28;20029;-83
2023/05/14 02:12:29;;;;;;;29.55;19.40;;;10.50;99.90;;;;;;5038582;28;20052;-84
2023/05/14 02:14:55;;;;;;;28.25;18.80;;;10.50;99.90;;;;;;5027257;28;20033;-84
2023/05/14 02:17:21;;;;;;;26.65;19.00;;;10.50;99.90;;;;;;5046465;28;20332;-84
2023/05/14 02:20:09;;;;;;;31.58;19.08;;;10.40;99.90;;;;;;5028772;28;20040;-83
2023/05/14 02:22:34;;;;;;;34.47;19.45;;;10.40;99.90;;;;;;5032027;28;20060;-83
2023/05/14 02:25:10;;;;;;;25.50;18.40;;;10.40;99.90;;;;;;5048497;28;20037;-83
2023/05/14 02:27:36;;;;;;;31.80;18.15;;;10.50;99.90;;;;;;5018552;28;20572;-84
2023/05/14 02:30:02;;;;;;;32.90;19.52;;;10.50;99.90;;;;;;5016440;28;20125;-84
2023/05/14 02:32:28;;;;;;;32.40;19.77;;;10.50;99.90;;;;;;5027398;28;20033;-84
2023/05/14 02:34:53;;;;;;;26.77;19.15;;;10.40;99.90;;;;;;5046620;28;20420;-84
2023/05/14 02:37:19;;;;;;;31.33;20.10;;;10.40;99.90;;;;;;5038764;28;20029;-84
2023/05/14 02:39:45;;;;;;;29.35;19.23;;;10.40;99.90;;;;;;5043027;28;20133;-84
2023/05/14 02:42:10;;;;;;;28.35;18.55;;;10.40;99.90;;;;;;5049139;28;20033;-84
2023/05/14 02:44:36;;;;;;;32.10;20.17;;;10.50;99.90;;;;;;5020429;28;20071;-84
2023/05/14 02:47:08;;;;;;;28.00;19.42;;;10.50;99.90;;;;;;5026539;28;20079;-84
2023/05/14 02:49:55;;;;;;;30.80;21.23;;;10.50;99.90;;;;;;5019558;28;20099;-83
2023/05/14 02:52:20;;;;;;;29.27;19.10;;;10.60;99.90;;;;;;5039415;28;20033;-84
2023/05/14 02:54:46;;;;;;;29.80;20.73;;;10.70;99.90;;;;;;5022010;28;20481;-84
2023/05/14 02:57:12;;;;;;;31.58;21.50;;;10.80;99.90;;;;;;5012930;28;20041;-83
2023/05/14 02:59:38;;;;;;;34.15;21.50;;;10.70;99.90;;;;;;5051338;28;20108;-84
2023/05/14 03:02:06;;;;;;;31.15;20.10;;;10.60;99.90;;;;;;5076513;28;20448;-83
2023/05/14 03:04:32;;;;;;;28.60;19.48;;;10.70;99.90;;;;;;5066647;28;20060;-83
2023/05/14 03:07:02;;;;;;;29.42;21.00;;;10.70;99.90;;;;;;5043154;28;20071;-84
2023/05/14 03:09:31;;;;;;;28.75;19.50;;;10.70;99.90;;;;;;5045975;28;20049;-83
2023/05/14 03:12:11;;;;;;;31.67;20.20;;;10.80;99.90;;;;;;5030925;28;20040;-83
2023/05/14 03:14:37;;;;;;;30.20;20.60;;;10.80;99.90;;;;;;5047483;28;20024;-84
2023/05/14 03:17:03;;;;;;;32.85;21.10;;;10.80;99.90;;;;;;5038620;28;20051;-84
2023/05/14 03:19:46;;;;;;;34.08;21.55;;;10.80;99.90;;;;;;5047093;28;20459;-84
2023/05/14 03:22:12;;;;;;;32.05;20.83;;;10.80;99.90;;;;;;5030336;28;20091;-84
2023/05/14 03:24:40;;;;;;;37.22;22.80;;;10.70;99.90;;;;;;5046902;28;20440;-84
2023/05/14 03:27:06;;;;;;;37.40;22.83;;;10.70;99.90;;;;;;5045985;28;20073;-84
2023/05/14 03:29:33;;;;;;;40.80;24.35;;;10.70;99.90;;;;;;5039888;28;20040;-83
2023/05/14 03:31:58;;;;;;;39.00;24.05;;;10.60;99.90;;;;;;5049331;28;20119;-84
2023/05/14 03:34:24;;;;;;;40.28;25.27;;;10.50;99.90;;;;;;5044647;28;20097;-85
2023/05/14 03:36:50;;;;;;;36.75;24.35;;;10.60;99.90;;;;;;5043776;28;20526;-84
2023/05/14 03:39:18;;;;;;;35.30;23.20;;;10.50;99.90;;;;;;5075661;28;20031;-84
2023/05/14 03:41:45;;;;;;;35.05;22.35;;;10.40;99.90;;;;;;5050911;28;20450;-84
2023/05/14 03:44:11;;;;;;;34.20;22.60;;;10.50;99.90;;;;;;5042779;28;20119;-85
2023/05/14 03:46:39;;;;;;;37.92;22.75;;;10.60;99.90;;;;;;5041208;28;20040;-85
2023/05/14 03:49:05;;;;;;;35.22;22.85;;;10.60;99.90;;;;;;5048756;28;20024;-85
2023/05/14 03:51:33;;;;;;;31.25;21.67;;;10.60;99.90;;;;;;5048779;28;20766;-85
2023/05/14 03:54:22;;;;;;;36.33;22.17;;;10.70;99.90;;;;;;5066332;28;20036;-84
2023/05/14 03:57:09;;;;;;;34.15;20.65;;;10.70;99.90;;;;;;5046209;28;20060;-85
2023/05/14 03:59:34;;;;;;;36.67;21.65;;;10.70;99.90;;;;;;5059160;28;20471;-84
2023/05/14 04:02:00;;;;;;;36.65;22.48;;;10.60;99.90;;;;;;5040915;28;20052;-84
2023/05/14 04:04:26;;;;;;;36.35;23.00;;;10.60;99.90;;;;;;5028842;28;20044;-85
2023/05/14 04:06:53;;;;;;;40.60;22.73;;;10.60;99.90;;;;;;5040205;28;20127;-84
2023/05/14 04:09:19;;;;;;;36.63;23.38;;;10.60;99.90;;;;;;5044173;28;20033;-84
2023/05/14 04:11:45;;;;;;;37.30;21.60;;;10.60;99.90;;;;;;5042854;28;20500;-85
2023/05/14 04:14:27;;;;;;;36.22;22.45;;;10.60;99.90;;;;;;5043389;28;20025;-84
2023/05/14 04:16:52;;;;;;;33.00;20.80;;;10.60;99.90;;;;;;5066773;28;20028;-85
2023/05/14 04:19:18;;;;;;;34.10;20.95;;;10.50;99.90;;;;;;5033774;28;20062;-87
2023/05/14 04:22:03;;;;;;;35.47;22.05;;;10.50;99.90;;;;;;5040044;28;20033;-85
2023/05/14 04:24:29;;;;;;;32.92;21.20;;;10.50;99.90;;;;;;5062460;28;20044;-86
2023/05/14 04:26:55;;;;;;;37.70;22.73;;;10.40;99.90;;;;;;5036287;28;20886;-86
2023/05/14 04:29:20;;;;;;;38.45;22.60;;;10.40;99.90;;;;;;5041060;28;20159;-85
2023/05/14 04:31:47;;;;;;;38.63;23.30;;;10.40;99.90;;;;;;5055761;22;20143;-86
2023/05/14 04:34:13;;;;;;;39.83;22.73;;;10.50;99.90;;;;;;5060582;28;20028;-86
2023/05/14 04:36:40;;;;;;;36.42;23.13;;;10.30;99.90;;;;;;5066808;28;20043;-85
2023/05/14 04:39:08;;;;;;;38.50;23.60;;;10.30;99.90;;;;;;5051438;28;20098;-86
2023/05/14 04:41:33;;;;;;;38.47;23.70;;;10.30;99.90;;;;;;5054401;28;20028;-85
2023/05/14 04:44:01;;;;;;;39.45;24.38;;;10.20;99.90;;;;;;5088662;28;20073;-86
2023/05/14 04:46:27;;;;;;;36.60;23.05;;;10.20;99.90;;;;;;5071422;28;20046;-86
2023/05/14 04:48:53;;;;;;;36.90;23.33;;;10.30;99.90;;;;;;5099132;28;20056;-86
2023/05/14 04:51:19;;;;;;;34.47;21.55;;;10.30;99.90;;;;;;5078444;28;20339;-86
2023/05/14 04:53:44;;;;;;;36.85;22.27;;;10.30;99.90;;;;;;5044313;28;20033;-85
2023/05/14 04:56:11;;;;;;;40.55;23.13;;;10.40;99.90;;;;;;5047296;28;20028;-86
2023/05/14 04:58:39;;;;;;;38.22;21.63;;;10.40;99.90;;;;;;5061941;28;20025;-85
2023/05/14 05:01:05;;;;;;;36.55;21.35;;;10.40;99.90;;;;;;5072935;28;20039;-86
2023/05/14 05:03:31;;;;;;;38.05;23.25;;;10.40;99.90;;;;;;5053542;28;20028;-86
2023/05/14 05:05:57;;;;;;;35.35;22.10;;;10.50;99.90;;;;;;5086579;28;20047;-85
2023/05/14 05:08:26;;;;;;;36.40;22.33;;;10.50;99.90;;;;;;5050283;28;20638;-85
2023/05/14 05:10:51;;;;;;;37.92;23.15;;;10.40;99.90;;;;;;5078102;28;20060;-85
2023/05/14 05:13:18;;;;;;;37.42;23.70;;;10.50;99.90;;;;;;5083312;28;20080;-85
2023/05/14 05:15:44;;;;;;;38.22;22.15;;;10.50;99.90;;;;;;5059088;28;20032;-85
2023/05/14 05:18:10;;;;;;;37.83;23.08;;;10.50;99.90;;;;;;5051389;28;20055;-85
2023/05/14 05:20:35;;;;;;;37.85;23.88;;;10.40;99.90;;;;;;5047446;28;20040;-84
2023/05/14 05:23:01;;;;;;;38.58;22.63;;;10.50;99.90;;;;;;5054506;28;20033;-85
2023/05/14 05:25:27;;;;;;;38.78;22.98;;;10.50;99.90;;;;;;5051562;28;20036;-84
2023/05/14 05:27:52;;;;;;;41.55;23.67;;;10.40;99.90;;;;;;5055358;28;20047;-85
2023/05/14 05:30:18;;;;;;;37.42;23.63;;;10.40;99.90;;;;;;5084538;28;20052;-85
2023/05/14 05:32:44;;;;;;;38.55;22.85;;;10.40;99.90;;;;;;5046644;28;20082;-84
2023/05/14 05:35:15;;;;;;;35.00;22.90;;;10.40;99.90;;;;;;5094105;28;20032;-85
2023/05/14 05:37:41;;;;;;;39.10;22.70;;;10.40;99.90;;;;;;5078427;28;20055;-85
2023/05/14 05:40:09;;;;;;;36.35;21.92;;;10.60;99.90;;;;;;5062736;28;20492;-85
2023/05/14 05:42:36;;;;;;;37.80;22.83;;;10.70;99.90;;;;;;5081900;28;20036;-85
2023/05/14 05:45:01;;;;;;;37.17;21.92;;;10.50;99.90;;;;;;5070853;28;20291;-85
2023/05/14 05:47:27;;;;;;;35.00;22.17;;;10.60;99.90;;;;;;5088461;28;20420;-85
2023/05/14 05:49:53;;;;;;;41.58;23.98;;;10.70;99.90;;;;;;5104488;28;20089;-84
2023/05/14 05:52:18;;;;;;;36.08;22.13;;;10.80;99.90;;;;;;5102740;28;20034;-86
2023/05/14 05:54:44;;;;;;;38.67;23.08;;;10.80;99.90;;;;;;5093085;28;20032;-85
2023/05/14 05:57:10;;;;;;;39.08;22.75;;;10.80;99.90;;;;;;5053440;28;20063;-85
2023/05/14 05:59:35;;;;;;;34.83;22.25;;;10.90;99.90;;;;;;5096284;28;20403;-85
2023/05/14 06:02:01;;;;;;;37.92;22.25;;;11.00;99.90;;;;;;5083092;28;20028;-85
2023/05/14 06:04:26;;;;;;;36.10;22.55;;;11.00;99.90;;;;;;5094908;28;20032;-85
2023/05/14 06:06:59;;;;;;;41.38;22.88;;;10.90;99.90;;;;;;5066199;28;20045;-85
2023/05/14 06:09:26;;;;;;;36.45;22.75;;;10.80;99.90;;;;;;5049527;28;20040;-85
2023/05/14 06:11:52;;;;;;;37.97;22.55;;;10.80;99.90;;;;;;5097797;28;20032;-85
2023/05/14 06:14:18;;;;;;;39.15;21.98;;;10.70;99.90;;;;;;5076266;28;20247;-85
2023/05/14 06:16:45;;;;;;;38.17;22.27;;;10.70;99.90;;;;;;5067566;28;20217;-85
2023/05/14 06:19:10;;;;;;;36.80;22.20;;;10.80;99.90;;;;;;5068633;28;20067;-86
2023/05/14 06:21:36;;;;;;;38.97;23.13;;;10.70;99.90;;;;;;5097619;28;20515;-86
2023/05/14 06:24:06;;;;;;;41.67;23.42;;;10.90;99.90;;;;;;5067945;28;20030;-85
2023/05/14 06:26:34;;;;;;;37.80;22.95;;;11.00;99.90;;;;;;5066863;28;20108;-86
2023/05/14 06:29:00;;;;;;;38.13;22.30;;;11.10;99.90;;;;;;5051947;28;20063;-84
2023/05/14 06:31:26;;;;;;;38.70;23.17;;;11.20;99.90;;;;;;5072322;28;20555;-84
2023/05/14 06:33:52;;;;;;;40.92;24.67;;;11.30;99.90;;;;;;5055948;28;20024;-86
2023/05/14 06:36:29;;;;;;;45.78;25.50;;;11.00;99.90;;;;;;5073188;28;20038;-86
2023/05/14 06:38:55;;;;;;;43.83;24.88;;;11.00;99.90;;;;;;5059377;28;20043;-86
2023/05/14 06:41:21;;;;;;;47.53;26.80;;;11.00;99.90;;;;;;5058991;28;20021;-86
2023/05/14 06:47:07;;;;;;;41.85;23.75;;;11.00;99.90;;;;;;5069085;28;20101;-84
2023/05/14 06:49:34;;;;;;;45.13;25.23;;;11.30;99.90;;;;;;5076225;28;20041;-85
2023/05/14 06:52:01;;;;;;;39.63;23.38;;;11.50;99.90;;;;;;5062486;28;20046;-85
2023/05/14 06:54:26;;;;;;;45.40;24.13;;;11.60;99.90;;;;;;5058331;28;20085;-86
2023/05/14 06:56:52;;;;;;;41.47;24.02;;;11.80;99.90;;;;;;5062565;28;20031;-86
2023/05/14 06:59:18;;;;;;;39.83;23.52;;;12.00;99.90;;;;;;5071377;28;20374;-85
2023/05/14 07:01:43;;;;;;;38.38;23.42;;;12.20;99.90;;;;;;5069256;28;20024;-86
2023/05/14 07:04:10;;;;;;;42.78;24.33;;;12.40;99.90;;;;;;5071178;28;20051;-85
2023/05/14 07:06:36;;;;;;;39.60;23.83;;;12.50;99.90;;;;;;5070297;28;20648;-86
2023/05/14 07:09:02;;;;;;;38.22;23.27;;;12.50;99.90;;;;;;5074385;28;20027;-84
2023/05/14 07:11:33;;;;;;;40.47;24.70;;;12.40;99.90;;;;;;5083336;28;20032;-85
2023/05/14 07:14:03;;;;;;;39.85;24.30;;;12.40;99.90;;;;;;5077382;28;20031;-85
2023/05/14 07:16:29;;;;;;;41.15;23.77;;;12.70;99.90;;;;;;5077567;28;20061;-86
2023/05/14 07:18:55;;;;;;;38.05;22.73;;;12.50;99.90;;;;;;5072866;28;20032;-85
2023/05/14 07:21:21;;;;;;;35.45;21.73;;;12.60;99.90;;;;;;5067168;28;20481;-85
2023/05/14 07:23:46;;;;;;;38.40;21.10;;;12.80;99.90;;;;;;5064558;28;20598;-86
2023/05/14 07:26:12;;;;;;;36.60;21.88;;;12.90;99.90;;;;;;5067370;28;20077;-86
2023/05/14 07:28:37;;;;;;;36.30;22.08;;;13.10;99.90;;;;;;5067093;28;20025;-86
2023/05/14 07:31:07;;;;;;;37.17;21.60;;;13.20;99.90;;;;;;5066572;28;20487;-85
2023/05/14 07:33:34;;;;;;;33.47;20.90;;;13.20;99.90;;;;;;5070070;28;20119;-85
2023/05/14 07:36:00;;;;;;;33.95;21.27;;;13.30;99.90;;;;;;5104937;27;20067;-86
2023/05/14 07:38:26;;;;;;;32.05;20.67;;;13.40;99.90;;;;;;5078698;28;20432;-86
2023/05/14 07:40:51;;;;;;;31.48;19.30;;;13.30;99.90;;;;;;5079027;28;20024;-85
2023/05/14 07:43:17;;;;;;;32.13;20.88;;;13.50;99.90;;;;;;5076638;28;20032;-84
2023/05/14 07:45:42;;;;;;;33.67;20.67;;;13.20;99.90;;;;;;5078869;28;20058;-86
2023/05/14 07:48:08;;;;;;;32.15;21.08;;;13.30;99.90;;;;;;5077083;28;20612;-85
2023/05/14 07:50:33;;;;;;;29.63;19.83;;;13.50;99.90;;;;;;5078177;28;20115;-84
2023/05/14 07:52:59;;;;;;;35.00;21.30;;;13.80;99.90;;;;;;5074571;28;20036;-85
2023/05/14 07:55:25;;;;;;;30.40;20.35;;;13.80;99.90;;;;;;5071615;28;20028;-84
2023/05/14 07:57:50;;;;;;;29.70;19.80;;;13.70;99.90;;;;;;5090426;28;20520;-85
2023/05/14 08:00:16;;;;;;;28.90;19.35;;;14.00;99.90;;;;;;5084376;28;20606;-84
2023/05/14 08:02:42;;;;;;;31.40;18.92;;;14.30;99.90;;;;;;5083646;28;20031;-85
2023/05/14 08:05:08;;;;;;;33.70;20.85;;;14.30;99.90;;;;;;5085654;28;20036;-84
2023/05/14 08:07:34;;;;;;;29.67;20.15;;;14.60;99.90;;;;;;5069244;28;20115;-83
2023/05/14 08:10:00;;;;;;;31.20;20.38;;;14.60;99.90;;;;;;5083223;28;20065;-84
2023/05/14 08:12:25;;;;;;;29.45;19.80;;;14.60;99.90;;;;;;5080653;28;20036;-85
2023/05/14 08:14:51;;;;;;;34.10;21.60;;;14.60;99.90;;;;;;5079470;28;20024;-84
2023/05/14 08:17:17;;;;;;;32.65;20.73;;;14.80;99.90;;;;;;5073355;28;20034;-84
2023/05/14 08:19:43;;;;;;;31.35;19.27;;;14.90;99.90;;;;;;5117687;27;20024;-85
2023/05/14 08:22:08;;;;;;;29.60;19.50;;;15.10;99.90;;;;;;5100658;27;20142;-84
2023/05/14 08:24:34;;;;;;;32.00;19.20;;;15.30;99.90;;;;;;5077949;28;20031;-84
2023/05/14 08:26:59;;;;;;;31.13;19.75;;;15.40;98.80;;;;;;5069161;28;20451;-84
2023/05/14 08:29:25;;;;;;;31.63;19.75;;;15.70;99.10;;;;;;5072574;28;20020;-84
2023/05/14 08:31:51;;;;;;;32.45;20.50;;;15.60;98.50;;;;;;5073251;28;20131;-85
2023/05/14 08:34:17;;;;;;;32.58;21.08;;;15.90;99.60;;;;;;5076266;28;20034;-83
2023/05/14 08:36:42;;;;;;;30.90;20.95;;;16.20;99.30;;;;;;5074885;28;20508;-84
2023/05/14 08:39:08;;;;;;;33.40;21.25;;;16.30;98.00;;;;;;5078222;28;20079;-84
2023/05/14 08:41:34;;;;;;;29.20;19.55;;;16.40;95.60;;;;;;5080777;28;20028;-84
2023/05/14 08:44:10;;;;;;;31.20;20.25;;;16.40;97.40;;;;;;5072999;28;20028;-84
2023/05/14 08:46:37;;;;;;;32.72;20.65;;;16.60;96.40;;;;;;5072844;28;20040;-83
2023/05/14 08:49:41;;;;;;;31.75;20.13;;;16.60;96.10;;;;;;5072023;28;20023;-84
2023/05/14 08:52:08;;;;;;;31.13;19.85;;;16.50;96.10;;;;;;5072180;28;20029;-84
2023/05/14 08:54:34;;;;;;;29.85;19.95;;;16.50;95.40;;;;;;5081773;28;20035;-85
2023/05/14 08:57:02;;;;;;;29.67;20.00;;;16.80;96.30;;;;;;5067400;28;20020;-83
2023/05/14 08:59:28;;;;;;;31.70;19.73;;;16.90;96.30;;;;;;5082834;28;20028;-84
2023/05/14 09:01:55;;;;;;;31.20;19.30;;;17.30;93.80;;;;;;5074074;28;20511;-83
2023/05/14 09:04:22;;;;;;;35.35;19.75;;;17.80;94.00;;;;;;5078651;28;20032;-83
2023/05/14 09:06:55;;;;;;;28.45;20.02;;;18.00;92.70;;;;;;5071047;28;20051;-83
2023/05/14 09:09:22;;;;;;;28.48;19.25;;;17.80;87.60;;;;;;5077510;28;20067;-83
2023/05/14 09:11:51;;;;;;;28.48;19.73;;;18.10;89.60;;;;;;5070273;28;20066;-83
2023/05/14 09:14:17;;;;;;;30.65;20.67;;;18.20;89.00;;;;;;5065485;28;20399;-78
2023/05/14 09:16:44;;;;;;;29.23;19.65;;;18.40;84.60;;;;;;5067271;28;20031;-78
2023/05/14 09:19:11;;;;;;;27.35;20.13;;;18.90;83.30;;;;;;5062220;28;20032;-84
2023/05/14 09:21:37;;;;;;;31.02;20.23;;;19.70;69.20;;;;;;5095581;28;20173;-84
2023/05/14 09:24:03;;;;;;;26.67;18.42;;;20.90;58.40;;;;;;5063695;28;20463;-83
2023/05/14 09:26:31;;;;;;;28.52;19.88;;;22.40;52.10;;;;;;5062284;28;20616;-84
2023/05/14 09:29:01;;;;;;;27.38;19.83;;;22.90;51.10;;;;;;5066175;28;20036;-82
2023/05/14 09:31:30;;;;;;;28.00;18.45;;;22.70;50.50;;;;;;5072749;28;20091;-83
2023/05/14 09:33:56;;;;;;;27.77;19.92;;;22.50;50.00;;;;;;5062393;28;20044;-82
2023/05/14 09:36:23;;;;;;;25.80;18.27;;;22.80;51.00;;;;;;5061049;28;20029;-81
2023/05/14 09:38:49;;;;;;;27.73;21.00;;;25.00;45.40;;;;;;5064277;28;20052;-82
2023/05/14 09:41:15;;;;;;;27.95;20.65;;;25.30;41.20;;;;;;5067057;28;20074;-82
2023/05/14 09:43:41;;;;;;;24.63;19.85;;;24.90;43.90;;;;;;5061233;28;20032;-83
2023/05/14 09:46:07;;;;;;;28.60;20.27;;;24.10;43.40;;;;;;5064703;28;20063;-83
2023/05/14 09:48:32;;;;;;;28.90;21.10;;;23.80;46.50;;;;;;5070523;28;20028;-83
2023/05/14 09:50:58;;;;;;;29.40;21.60;;;23.70;46.90;;;;;;5064407;28;20062;-82
2023/05/14 09:53:24;;;;;;;30.30;21.95;;;23.60;47.30;;;;;;5061205;28;20126;-82
2023/05/14 09:55:49;;;;;;;29.58;21.95;;;23.50;46.50;;;;;;5071354;28;20104;-83
2023/05/14 09:58:15;;;;;;;26.60;18.80;;;24.10;46.70;;;;;;5075355;28;20044;-81
2023/05/14 10:00:45;;;;;;;31.67;22.00;;;26.30;46.40;;;;;;5075994;28;20688;-81
2023/05/14 10:03:13;;;;;;;30.13;21.23;;;27.20;38.30;;;;;;5077872;28;20058;-82
2023/05/14 10:05:40;;;;;;;27.20;19.90;;;26.30;38.90;;;;;;5074486;28;20036;-83
2023/05/14 10:08:26;;;;;;;25.67;20.13;;;26.20;40.30;;;;;;5075988;28;20028;-83
2023/05/14 10:10:53;;;;;;;25.98;21.15;;;25.40;41.90;;;;;;5070656;28;20017;-82
2023/05/14 10:13:30;;;;;;;26.75;20.67;;;24.40;41.70;;;;;;5081336;28;20124;-83
2023/05/14 10:16:27;;;;;;;27.92;20.30;;;23.70;46.70;;;;;;5077613;28;20035;-83
2023/05/14 10:18:58;;;;;;;27.38;20.33;;;23.70;45.60;;;;;;5077565;28;20082;-83
2023/05/14 10:21:25;;;;;;;24.48;19.30;;;24.50;43.60;;;;;;5077870;28;20115;-83
2023/05/14 10:23:51;;;;;;;27.77;18.67;;;25.70;42.50;;;;;;5066625;28;20037;-82
2023/05/14 10:26:17;;;;;;;22.42;17.45;;;28.00;40.30;;;;;;5073169;28;20131;-82
2023/05/14 10:28:43;;;;;;;22.13;18.58;;;30.70;37.20;;;;;;5068535;28;20035;-83
2023/05/14 10:31:09;;;;;;;21.92;17.55;;;32.30;33.60;;;;;;5067921;28;20059;-82
2023/05/14 10:33:49;;;;;;;21.58;18.05;;;32.60;31.90;;;;;;5070548;28;20054;-83
2023/05/14 10:36:16;;;;;;;21.13;18.27;;;31.80;31.10;;;;;;5075239;28;20028;-83
2023/05/14 10:38:42;;;;;;;22.70;18.75;;;31.20;31.90;;;;;;5079147;28;20028;-84
2023/05/14 10:41:16;;;;;;;23.63;19.95;;;30.80;35.90;;;;;;5085888;28;20032;-83
2023/05/14 10:43:42;;;;;;;22.30;17.85;;;31.10;34.40;;;;;;5082473;28;20032;-83
2023/05/14 10:46:10;;;;;;;22.13;18.52;;;32.70;32.00;;;;;;5077628;28;20465;-83
2023/05/14 10:48:38;;;;;;;21.00;17.20;;;33.90;29.30;;;;;;5074214;28;20028;-83
2023/05/14 10:51:07;;;;;;;21.50;19.10;;;34.90;28.70;;;;;;5070487;28;20038;-83
2023/05/14 10:53:37;;;;;;;22.60;17.90;;;35.50;28.40;;;;;;5074109;28;20021;-84
2023/05/14 10:56:08;;;;;;;22.30;18.55;;;35.90;28.70;;;;;;5070749;28;20115;-83
2023/05/14 10:58:42;;;;;;;19.10;16.45;;;36.00;28.30;;;;;;5071436;28;20404;-83
2023/05/14 11:01:10;;;;;;;19.20;17.27;;;35.70;27.70;;;;;;5075450;28;20131;-83
2023/05/14 11:03:46;;;;;;;18.42;16.50;;;35.40;28.80;;;;;;5070573;28;20035;-83
2023/05/14 11:06:14;;;;;;;19.40;17.38;;;35.20;29.40;;;;;;5078862;28;20040;-81
2023/05/14 11:08:40;;;;;;;18.10;16.17;;;35.50;27.80;;;;;;5069743;28;20583;-83
2023/05/14 11:11:07;;;;;;;17.75;15.80;;;35.30;28.90;;;;;;5092900;28;20035;-82
2023/05/14 11:13:33;;;;;;;19.80;17.75;;;35.90;30.30;;;;;;5105789;28;20372;-85
2023/05/14 11:16:00;;;;;;;19.52;17.42;;;36.10;28.00;;;;;;5094103;28;20433;-82
2023/05/14 11:18:30;;;;;;;17.88;16.02;;;35.80;27.90;;;;;;5082470;28;20296;-83
2023/05/14 11:21:00;;;;;;;22.30;18.53;;;35.30;28.00;;;;;;5110656;27;20024;-85
2023/05/14 11:23:26;;;;;;;20.67;18.50;;;34.50;30.00;;;;;;5065452;28;20029;-82
2023/05/14 11:25:53;;;;;;;20.58;18.23;;;33.60;31.80;;;;;;5070827;28;21347;-83
2023/05/14 11:28:22;;;;;;;21.30;18.98;;;32.20;33.10;;;;;;5077940;28;20047;-83
2023/05/14 11:30:52;;;;;;;21.75;18.35;;;30.10;32.50;;;;;;5081597;28;20048;-82
2023/05/14 11:33:18;;;;;;;21.92;19.63;;;29.10;40.70;;;;;;5085379;28;20039;-84
2023/05/14 11:35:45;;;;;;;26.75;20.50;;;28.60;37.50;;;;;;5078471;28;20070;-83
2023/05/14 11:38:18;;;;;;;25.90;20.73;;;27.70;40.40;;;;;;5105224;27;20082;-83
2023/05/14 11:40:57;;;;;;;26.17;21.40;;;26.80;42.80;;;;;;5077072;28;20028;-84
2023/05/14 11:43:24;;;;;;;27.58;23.42;;;26.40;42.60;;;;;;5069982;28;20037;-85
2023/05/14 11:45:51;;;;;;;24.73;19.88;;;25.90;41.50;;;;;;5087730;28;20032;-85
2023/05/14 11:48:17;;;;;;;25.58;21.25;;;26.10;45.30;;;;;;5083524;28;20028;-83
2023/05/14 11:50:52;;;;;;;28.90;22.40;;;26.00;44.40;;;;;;5078635;28;20032;-86
2023/05/14 11:53:25;;;;;;;25.05;21.42;;;26.00;43.50;;;;;;5071976;28;20039;-86
2023/05/14 11:55:58;;;;;;;25.20;20.80;;;26.00;44.40;;;;;;5077723;28;20062;-83
2023/05/14 11:58:24;;;;;;;29.85;22.20;;;26.20;45.70;;;;;;5066477;28;20159;-86
2023/05/14 12:00:52;;;;;;;25.42;21.23;;;25.50;43.90;;;;;;5072866;28;20314;-85
2023/05/14 12:03:25;;;;;;;29.52;23.17;;;25.50;50.30;;;;;;5099344;28;20024;-85
2023/05/14 12:05:57;;;;;;;31.40;24.08;;;24.70;47.90;;;;;;5079235;28;20024;-85
2023/05/14 12:08:28;;;;;;;29.63;23.65;;;24.50;50.50;;;;;;5077510;28;20040;-84
2023/05/14 12:10:54;;;;;;;34.90;26.25;;;24.70;56.50;;;;;;5075516;28;20587;-85
2023/05/14 12:13:19;;;;;;;32.00;23.83;;;24.30;50.40;;;;;;5085753;28;20427;-87
2023/05/14 12:15:56;;;;;;;30.02;24.88;;;24.40;51.70;;;;;;5081821;28;20024;-84
2023/05/14 12:18:24;;;;;;;31.75;23.92;;;24.70;51.90;;;;;;5083244;28;20028;-83
2023/05/14 12:20:50;;;;;;;30.88;23.42;;;24.40;54.70;;;;;;5077698;28;20032;-82
2023/05/14 12:23:24;;;;;;;31.70;23.80;;;24.20;53.70;;;;;;5075763;28;20030;-84
2023/05/14 12:25:50;;;;;;;34.75;24.20;;;24.50;61.20;;;;;;5084163;28;20498;-81
2023/05/14 12:28:17;;;;;;;31.65;22.92;;;24.60;53.80;;;;;;5085499;28;20024;-82
2023/05/14 12:30:43;;;;;;;33.85;26.05;;;24.80;59.40;;;;;;5083821;28;20048;-82
2023/05/14 12:33:09;;;;;;;33.80;25.50;;;24.50;67.10;;;;;;5080024;28;20063;-83
2023/05/14 12:35:35;;;;;;;31.60;24.60;;;24.50;58.60;;;;;;5078681;28;20066;-84